Dryden, Canada
Current Conditions -  °F | °C
As of 4:00 AM on Wednesday 22 Oct 2014 (Local Time) from CYHD Reporting Station
Clear Clear  
Wind Chill: 31°   Ceiling: Unl
Heat Index: 39°   Visibility: 9mi
Dew Point: 36°   Wind: 14mph
Humidity: 87%   Direction: 170°S
Pressure: 30.05"   Gusts: 20mph
Location:  49.78°N, 92.84°W
Report Text: CYHD 220900Z AUTO 17012G17KT 9SM CLR 04/02 A3005 RMK SLP193
Loading
Personal Weather Stations






























Interactive Weather Map
Tropical Storm Tracking
New forecast layout! Learn more

10-Day Weather Forecast

Advertisements
Track Severe Weather on mobile